createdAt,value
2023-01-10T00:02:18.056Z,94846.72
2023-01-10T00:05:20.375Z,94869.06
2023-01-10T00:08:22.158Z,94868.03
2023-01-10T00:11:23.937Z,94864.06
2023-01-10T00:14:28.736Z,94856.06
2023-01-10T00:17:30.516Z,94870.13
2023-01-10T00:20:32.718Z,94864.53
2023-01-10T00:23:35.530Z,94859.09
2023-01-10T00:26:37.339Z,94864.28
2023-01-10T00:29:40.485Z,94872.13
2023-01-10T00:32:45.023Z,94862.28
2023-01-10T00:35:47.088Z,94869.59
2023-01-10T00:38:48.843Z,94876.00
2023-01-10T00:41:50.646Z,94873.41
2023-01-10T00:44:53.770Z,94885.03
2023-01-10T00:47:55.548Z,94883.47
2023-01-10T00:50:57.337Z,94888.06
2023-01-10T00:53:59.145Z,94896.16
2023-01-10T00:57:01.053Z,94905.25
2023-01-10T01:00:05.118Z,94901.13
2023-01-10T01:03:07.364Z,94909.31
2023-01-10T01:06:09.315Z,94920.25
2023-01-10T01:09:11.156Z,94926.63
2023-01-10T01:12:12.939Z,94945.91
2023-01-10T01:15:16.229Z,94944.34
2023-01-10T01:18:20.194Z,94942.88
2023-01-10T01:21:21.976Z,94958.72
2023-01-10T01:24:23.805Z,94953.03
2023-01-10T01:27:25.566Z,94979.13
2023-01-10T01:30:28.764Z,94982.97
2023-01-10T01:33:30.554Z,94980.22
2023-01-10T01:36:32.327Z,94974.22
2023-01-10T01:39:34.173Z,94997.34
2023-01-10T01:42:36.079Z,94985.16
2023-01-10T01:45:40.523Z,94990.16
2023-01-10T01:48:43.961Z,94984.72
2023-01-10T01:51:49.116Z,94988.94
2023-01-10T01:54:53.539Z,94995.91
2023-01-10T01:58:00.022Z,94996.75
2023-01-10T02:01:03.409Z,95010.88
2023-01-10T02:04:10.504Z,95001.31
2023-01-10T02:07:13.574Z,95008.22
2023-01-10T02:10:20.212Z,95004.44
2023-01-10T02:13:25.884Z,95017.84
2023-01-10T02:16:30.082Z,95021.19
2023-01-10T02:19:42.982Z,95017.19
2023-01-10T02:23:13.685Z,95027.66
2023-01-10T02:26:50.836Z,95035.75
2023-01-10T02:30:33.940Z,95048.31
2023-01-10T02:33:42.113Z,95035.41
2023-01-10T02:36:55.668Z,95050.13
2023-01-10T02:40:04.707Z,95046.16
2023-01-10T02:43:11.246Z,95063.38
2023-01-10T02:46:16.989Z,95054.00
2023-01-10T02:49:20.186Z,95066.38
2023-01-10T02:52:26.923Z,95061.91
2023-01-10T02:55:38.707Z,95066.47
2023-01-10T02:59:00.701Z,95089.81
2023-01-10T03:02:10.711Z,95083.50
2023-01-10T03:05:26.545Z,95080.16
2023-01-10T03:08:37.178Z,95084.03
2023-01-10T03:11:41.850Z,95095.81
2023-01-10T03:14:45.277Z,95099.38
2023-01-10T03:17:51.732Z,95101.41
2023-01-10T03:20:58.235Z,95108.06
2023-01-10T03:24:05.501Z,95110.09
2023-01-10T03:27:12.270Z,95123.72
2023-01-10T03:30:24.379Z,95121.63
2023-01-10T03:33:29.722Z,95128.94
2023-01-10T03:36:39.829Z,95124.06
2023-01-10T03:39:51.441Z,95146.16
2023-01-10T03:43:00.514Z,95150.75
2023-01-10T03:46:06.024Z,95157.94
2023-01-10T03:49:09.659Z,95156.16
2023-01-10T03:52:16.622Z,95159.94
2023-01-10T03:55:21.471Z,95176.31
2023-01-10T03:58:23.276Z,95182.63
2023-01-10T04:01:25.192Z,95185.53
2023-01-10T04:04:26.989Z,95178.28
2023-01-10T04:07:30.188Z,95179.63
2023-01-10T04:10:31.999Z,95193.97
2023-01-10T04:13:33.822Z,95204.41
2023-01-10T04:16:35.686Z,95212.75
2023-01-10T04:19:37.547Z,95210.09
2023-01-10T04:22:40.686Z,95217.75
2023-01-10T04:25:42.548Z,95226.09
2023-01-10T04:28:44.332Z,95231.56
2023-01-10T04:31:46.408Z,95235.88
2023-01-10T04:34:48.230Z,95235.34
2023-01-10T04:37:51.419Z,95242.66
2023-01-10T04:40:53.963Z,95260.69
2023-01-10T04:43:55.775Z,95254.13
2023-01-10T04:46:57.831Z,95263.44
2023-01-10T04:49:59.607Z,95267.59
2023-01-10T04:53:02.897Z,95269.56
2023-01-10T04:56:06.678Z,95272.22
2023-01-10T04:59:10.137Z,95278.91
2023-01-10T05:02:11.993Z,95285.91
2023-01-10T05:05:14.796Z,95293.38
2023-01-10T05:08:18.227Z,95295.69
2023-01-10T05:11:20.036Z,95316.72
2023-01-10T05:14:21.843Z,95320.72
2023-01-10T05:17:23.778Z,95317.03
2023-01-10T05:20:25.519Z,95332.75
2023-01-10T05:23:28.838Z,95331.28
2023-01-10T05:26:30.637Z,95325.38
2023-01-10T05:29:33.463Z,95323.72
2023-01-10T05:32:35.384Z,95345.41
2023-01-10T05:35:37.277Z,95347.53
2023-01-10T05:38:40.488Z,95362.09
2023-01-10T05:41:42.280Z,95367.44
2023-01-10T05:44:44.058Z,95363.84
2023-01-10T05:47:45.917Z,95374.22
2023-01-10T05:50:49.729Z,95376.53
2023-01-10T05:53:52.971Z,95387.97
2023-01-10T05:56:54.804Z,95396.44
2023-01-10T05:59:56.545Z,95395.13
2023-01-10T06:02:58.475Z,95404.78
2023-01-10T06:06:00.283Z,95405.25
2023-01-10T06:09:03.624Z,95408.34
2023-01-10T06:12:05.832Z,95409.47
2023-01-10T06:15:08.554Z,95428.16
2023-01-10T06:18:12.135Z,95413.66
2023-01-10T06:21:14.263Z,95417.13
2023-01-10T06:24:20.343Z,95425.34
2023-01-10T06:27:22.476Z,95420.00
2023-01-10T06:30:24.488Z,95431.38
2023-01-10T06:33:26.548Z,95442.47
2023-01-10T06:36:28.343Z,95448.94
2023-01-10T06:39:31.824Z,95449.69
2023-01-10T06:42:33.589Z,95458.47
2023-01-10T06:45:35.495Z,95460.47
2023-01-10T06:48:38.493Z,95464.72
2023-01-10T06:51:40.295Z,95468.59
2023-01-10T06:54:43.807Z,95473.28
2023-01-10T06:57:45.596Z,95472.72
2023-01-10T07:00:47.475Z,95483.50
2023-01-10T07:03:49.275Z,95504.09
2023-01-10T07:06:51.077Z,95513.09
2023-01-10T07:09:54.273Z,95526.75
2023-01-10T07:12:56.440Z,95530.91
2023-01-10T07:16:03.154Z,95533.44
2023-01-10T07:19:05.185Z,95537.34
2023-01-10T07:22:07.257Z,95542.69
2023-01-10T07:25:11.521Z,95542.44
2023-01-10T07:28:13.293Z,95542.44
2023-01-10T07:31:15.422Z,95563.63
2023-01-10T07:34:18.000Z,95552.59
2023-01-10T07:37:21.086Z,95568.03
2023-01-10T07:40:24.449Z,95574.94
2023-01-10T07:43:26.265Z,95583.63
2023-01-10T07:46:28.124Z,95587.53
2023-01-10T07:49:30.116Z,95582.94
2023-01-10T07:52:32.958Z,95585.50
2023-01-10T07:55:37.571Z,95596.00
2023-01-10T07:58:39.735Z,95592.06
2023-01-10T08:01:41.631Z,95606.66
2023-01-10T08:04:43.443Z,95613.41
2023-01-10T08:07:45.599Z,95618.81
2023-01-10T08:10:49.026Z,95620.03
2023-01-10T08:13:51.098Z,95625.59
2023-01-10T08:16:53.939Z,95624.25
2023-01-10T08:19:55.801Z,95647.19
2023-01-10T08:22:57.964Z,95653.63
2023-01-10T08:26:01.875Z,95643.88
2023-01-10T08:29:04.003Z,95647.94
2023-01-10T08:32:06.137Z,95660.66
2023-01-10T08:35:08.642Z,95666.00
2023-01-10T08:38:11.526Z,95685.03
2023-01-10T08:41:14.907Z,95666.09
2023-01-10T08:44:16.867Z,95675.09
2023-01-10T08:47:18.663Z,95682.00
2023-01-10T08:50:21.280Z,95696.69
2023-01-10T08:53:23.110Z,95700.59
2023-01-10T08:56:26.324Z,95708.81
2023-01-10T08:59:28.096Z,95709.56
2023-01-10T09:02:29.922Z,95713.09
2023-01-10T09:05:32.232Z,95724.69
2023-01-10T09:08:34.287Z,95716.38
2023-01-10T09:11:37.534Z,95717.81
2023-01-10T09:14:40.071Z,95723.44
2023-01-10T09:17:42.093Z,95733.16
2023-01-10T09:20:44.256Z,95736.88
2023-01-10T09:23:46.057Z,95750.72
2023-01-10T09:26:49.264Z,95757.63
2023-01-10T09:29:51.305Z,95760.19
2023-01-10T09:32:53.743Z,95761.53
2023-01-10T09:35:57.628Z,95765.19
2023-01-10T09:39:01.935Z,95766.88
2023-01-10T09:42:27.572Z,95768.66
2023-01-10T09:45:39.478Z,95775.34
2023-01-10T09:48:49.024Z,95777.25
2023-01-10T09:51:53.659Z,95800.81
2023-01-10T09:54:58.791Z,95810.44
2023-01-10T09:58:07.259Z,95788.31
2023-01-10T10:01:15.314Z,95786.66
2023-01-10T10:04:24.264Z,95787.66
2023-01-10T10:07:26.148Z,95799.72
2023-01-10T10:10:36.278Z,95801.00
2023-01-10T10:13:51.746Z,95799.78
2023-01-10T10:17:06.396Z,95807.97
2023-01-10T10:20:32.118Z,95809.38
2023-01-10T10:23:49.111Z,95804.84
2023-01-10T10:26:57.825Z,95800.81
2023-01-10T10:30:27.538Z,95796.25
2023-01-10T10:33:48.738Z,95819.81
2023-01-10T10:36:55.802Z,95803.16
2023-01-10T10:40:00.911Z,95815.91
2023-01-10T10:43:14.274Z,95815.84
2023-01-10T10:46:18.140Z,95807.53
2023-01-10T10:49:29.497Z,95815.00
2023-01-10T10:52:35.498Z,95821.91
2023-01-10T10:55:38.446Z,95808.97
2023-01-10T10:58:43.931Z,95820.94
2023-01-10T11:01:48.086Z,95823.06
2023-01-10T11:04:52.695Z,95814.25
2023-01-10T11:08:00.388Z,95819.44
2023-01-10T11:11:10.213Z,95818.16
2023-01-10T11:14:14.668Z,95829.47
2023-01-10T11:17:23.141Z,95828.16
2023-01-10T11:20:26.274Z,95840.53
2023-01-10T11:23:43.757Z,95851.75
2023-01-10T11:26:45.624Z,95847.78
2023-01-10T11:29:50.142Z,95839.56
2023-01-10T11:32:56.984Z,95852.16
2023-01-10T11:36:03.919Z,95829.91
2023-01-10T11:39:05.846Z,95844.25
2023-01-10T11:42:26.685Z,95831.34
2023-01-10T11:45:31.422Z,95839.31
2023-01-10T11:49:05.079Z,95845.88
2023-01-10T11:52:19.264Z,95846.84
2023-01-10T11:55:23.686Z,95850.56
2023-01-10T11:58:31.473Z,95853.16
2023-01-10T12:01:39.911Z,95871.44
2023-01-10T12:04:45.189Z,95863.84
2023-01-10T12:07:58.029Z,95851.63
2023-01-10T12:11:03.475Z,95852.06
2023-01-10T12:14:19.672Z,95872.28
2023-01-10T12:17:24.739Z,95877.28
2023-01-10T12:20:31.284Z,95873.72
2023-01-10T12:23:33.428Z,95871.06
2023-01-10T12:26:36.622Z,95884.56
2023-01-10T12:29:44.941Z,95878.47
2023-01-10T12:32:51.530Z,95890.78
2023-01-10T12:35:59.599Z,95907.97
2023-01-10T12:39:11.443Z,95876.38
2023-01-10T12:42:28.461Z,95889.41
2023-01-10T12:45:37.849Z,95901.97
2023-01-10T12:48:47.847Z,95901.59
2023-01-10T12:51:55.406Z,95914.94
2023-01-10T12:54:58.334Z,95903.50
2023-01-10T12:58:03.339Z,95913.59
2023-01-10T13:01:07.378Z,95907.84
2023-01-10T13:04:12.090Z,95923.44
2023-01-10T13:07:16.977Z,95933.00
2023-01-10T13:10:22.308Z,95931.13
2023-01-10T13:13:32.691Z,95938.81
2023-01-10T13:16:42.851Z,95941.94
2023-01-10T13:20:22.972Z,95936.91
2023-01-10T13:23:30.234Z,95947.81
2023-01-10T13:26:48.490Z,95951.84
2023-01-10T13:29:51.223Z,95960.53
2023-01-10T13:33:00.950Z,95969.63
2023-01-10T13:36:18.931Z,95966.41
2023-01-10T13:39:27.674Z,95979.72
2023-01-10T13:42:31.447Z,95959.19
2023-01-10T13:45:33.477Z,95984.97
2023-01-10T13:48:35.322Z,95971.34
2023-01-10T13:51:38.294Z,95979.97
2023-01-10T13:54:56.283Z,95981.34
2023-01-10T13:57:59.598Z,95984.78
2023-01-10T14:01:03.765Z,95996.28
2023-01-10T14:04:07.226Z,95998.81
2023-01-10T14:07:21.968Z,96013.41
2023-01-10T14:10:28.795Z,96015.19
2023-01-10T14:13:31.067Z,96014.22
2023-01-10T14:16:38.827Z,96001.81
2023-01-10T14:19:43.243Z,96007.44
2023-01-10T14:22:59.022Z,96013.41
2023-01-10T14:26:03.216Z,96024.44
2023-01-10T14:29:07.981Z,96019.13
2023-01-10T14:32:26.048Z,96012.84
2023-01-10T14:35:33.894Z,96022.38
2023-01-10T14:38:38.628Z,96019.13
2023-01-10T14:41:44.957Z,96018.00
2023-01-10T14:44:57.674Z,96018.31
2023-01-10T14:47:59.957Z,96018.91
2023-01-10T14:51:20.197Z,96042.16
2023-01-10T14:54:22.065Z,96017.34
2023-01-10T14:57:25.521Z,96025.81
2023-01-10T15:00:29.599Z,96035.53
2023-01-10T15:03:32.116Z,96035.09
2023-01-10T15:06:58.223Z,96042.28
2023-01-10T15:10:02.953Z,96042.28
2023-01-10T15:13:10.871Z,96051.25
2023-01-10T15:16:19.056Z,96055.03
2023-01-10T15:19:23.118Z,96041.84
2023-01-10T15:22:32.062Z,96047.84
2023-01-10T15:25:37.352Z,96048.31
2023-01-10T15:28:41.116Z,96038.28
2023-01-10T15:31:43.244Z,96049.44
2023-01-10T15:34:49.281Z,96040.94
2023-01-10T15:37:55.854Z,96045.69
2023-01-10T15:41:04.516Z,96044.22
2023-01-10T15:44:38.557Z,96043.53
2023-01-10T15:47:50.179Z,96050.56
2023-01-10T15:50:56.369Z,96047.44
2023-01-10T15:54:01.641Z,96060.72
2023-01-10T15:57:24.672Z,96054.75
2023-01-10T16:00:26.605Z,96055.78
2023-01-10T16:03:38.164Z,96062.25
2023-01-10T16:06:40.527Z,96059.91
2023-01-10T16:09:54.596Z,96053.13
2023-01-10T16:13:13.913Z,96066.63
2023-01-10T16:16:19.871Z,96061.66
2023-01-10T16:19:23.277Z,96047.97
2023-01-10T16:22:27.679Z,96055.53
2023-01-10T16:25:33.049Z,96062.97
2023-01-10T16:28:34.999Z,96066.41
2023-01-10T16:31:37.171Z,96057.22
2023-01-10T16:34:40.723Z,96053.25
2023-01-10T16:37:42.729Z,96057.16
2023-01-10T16:40:51.760Z,96063.59
2023-01-10T16:43:53.620Z,96063.41
2023-01-10T16:46:56.195Z,96060.94
2023-01-10T16:50:01.502Z,96065.03
2023-01-10T16:53:06.102Z,96068.00
2023-01-10T16:56:12.893Z,96064.06
2023-01-10T16:59:15.907Z,96062.03
2023-01-10T17:02:18.119Z,96063.13
2023-01-10T17:05:21.384Z,96060.78
2023-01-10T17:08:24.534Z,96058.88
2023-01-10T17:11:30.199Z,96068.03
2023-01-10T17:14:34.484Z,96059.34
2023-01-10T17:17:36.483Z,96066.13
2023-01-10T17:20:42.428Z,96062.97
2023-01-10T17:23:44.959Z,96076.50
2023-01-10T17:26:46.963Z,96067.84
2023-01-10T17:29:52.350Z,96062.66
2023-01-10T17:32:54.088Z,96061.59
2023-01-10T17:36:04.277Z,96080.44
2023-01-10T17:39:06.719Z,96070.09
2023-01-10T17:42:09.804Z,96074.19
2023-01-10T17:45:11.891Z,96068.50
2023-01-10T17:48:18.995Z,96065.09
2023-01-10T17:51:24.880Z,96072.28
2023-01-10T17:54:27.365Z,96072.91
2023-01-10T17:57:29.923Z,96071.00
2023-01-10T18:00:31.983Z,96069.63
2023-01-10T18:03:33.990Z,96066.47
2023-01-10T18:06:49.328Z,96068.66
2023-01-10T18:09:51.460Z,96066.00
2023-01-10T18:12:53.544Z,96070.19
2023-01-10T18:15:57.111Z,96065.88
2023-01-10T18:18:59.552Z,96070.34
2023-01-10T18:22:06.105Z,96066.63
2023-01-10T18:25:08.502Z,96067.72
2023-01-10T18:28:10.785Z,96065.97
2023-01-10T18:31:15.530Z,96063.28
2023-01-10T18:34:18.004Z,96067.94
2023-01-10T18:37:21.867Z,96056.00
2023-01-10T18:40:32.470Z,96062.75
2023-01-10T18:43:34.651Z,96055.72
2023-01-10T18:46:36.437Z,96057.63
2023-01-10T18:49:39.100Z,96059.81
2023-01-10T18:52:43.074Z,96058.44
2023-01-10T18:55:53.128Z,96058.13
2023-01-10T18:58:57.369Z,96062.09
2023-01-10T19:01:59.691Z,96051.19
2023-01-10T19:05:02.019Z,96061.75
2023-01-10T19:08:05.850Z,96052.63
2023-01-10T19:11:14.875Z,96052.97
2023-01-10T19:14:18.905Z,96043.56
2023-01-10T19:17:21.195Z,96044.44
2023-01-10T19:20:23.986Z,96052.59
2023-01-10T19:23:31.459Z,96061.47
2023-01-10T19:26:34.288Z,96054.75
2023-01-10T19:29:36.740Z,96054.91
2023-01-10T19:32:40.253Z,96052.72
2023-01-10T19:35:43.257Z,96055.25
2023-01-10T19:38:48.669Z,96050.56
2023-01-10T19:41:53.260Z,96055.91
2023-01-10T19:44:55.224Z,96054.97
2023-01-10T19:47:57.373Z,96058.81
2023-01-10T19:51:06.661Z,96045.66
2023-01-10T19:54:12.055Z,96050.38
2023-01-10T19:57:14.197Z,96045.78
2023-01-10T20:00:20.088Z,96038.72
2023-01-10T20:03:22.456Z,96039.50
2023-01-10T20:06:29.005Z,96037.91
2023-01-10T20:09:32.317Z,96037.56
2023-01-10T20:12:35.702Z,96031.75
2023-01-10T20:15:38.314Z,96026.47
2023-01-10T20:18:43.985Z,96019.88
2023-01-10T20:21:45.877Z,96032.09
2023-01-10T20:24:49.742Z,96026.31
2023-01-10T20:27:53.348Z,96026.03
2023-01-10T20:30:56.646Z,96025.75
2023-01-10T20:33:58.986Z,96024.84
2023-01-10T20:37:01.337Z,96019.84
2023-01-10T20:40:06.577Z,96028.50
2023-01-10T20:43:09.339Z,96019.28
2023-01-10T20:46:14.140Z,96021.28
2023-01-10T20:49:16.458Z,96010.31
2023-01-10T20:52:18.443Z,96012.03
2023-01-10T20:55:22.844Z,96007.97
2023-01-10T20:58:24.636Z,96010.97
2023-01-10T21:01:34.497Z,96006.44
2023-01-10T21:04:37.186Z,96012.56
2023-01-10T21:07:39.394Z,96000.34
2023-01-10T21:10:48.110Z,95994.22
2023-01-10T21:13:50.041Z,95988.72
2023-01-10T21:16:53.571Z,95988.59
2023-01-10T21:19:55.507Z,95991.56
2023-01-10T21:23:00.020Z,95987.19
2023-01-10T21:26:05.325Z,95994.25
2023-01-10T21:29:07.627Z,95986.56
2023-01-10T21:32:10.666Z,95986.09
2023-01-10T21:35:12.534Z,95978.41
2023-01-10T21:38:15.900Z,95976.84
2023-01-10T21:41:20.564Z,95962.09
2023-01-10T21:44:23.559Z,95966.47
2023-01-10T21:47:26.697Z,95966.94
2023-01-10T21:50:28.708Z,95971.50
2023-01-10T21:53:32.230Z,95966.81
2023-01-10T21:56:37.979Z,95958.03
2023-01-10T21:59:40.547Z,95959.44
2023-01-10T22:02:42.497Z,95971.81
2023-01-10T22:05:47.013Z,95964.59
2023-01-10T22:08:48.802Z,95968.19
2023-01-10T22:12:01.725Z,95967.88
2023-01-10T22:15:04.297Z,95966.63
2023-01-10T22:18:06.431Z,95960.84
2023-01-10T22:21:10.588Z,95954.09
2023-01-10T22:24:12.386Z,95964.72
2023-01-10T22:27:21.254Z,95952.63
2023-01-10T22:30:23.420Z,95950.59
2023-01-10T22:33:28.863Z,95949.19
2023-01-10T22:36:30.825Z,95949.94
2023-01-10T22:39:36.037Z,95947.88
2023-01-10T22:42:39.384Z,95942.56
2023-01-10T22:45:41.782Z,95938.38
2023-01-10T22:48:45.468Z,95938.88
2023-01-10T22:51:47.342Z,95938.13
2023-01-10T22:54:49.480Z,95943.75
2023-01-10T22:57:52.679Z,95933.41
2023-01-10T23:00:57.329Z,95935.09
2023-01-10T23:03:59.730Z,95930.41
2023-01-10T23:07:03.149Z,95933.66
2023-01-10T23:10:08.384Z,95932.25
2023-01-10T23:13:15.998Z,95932.41
2023-01-10T23:16:19.615Z,95925.69
2023-01-10T23:19:21.677Z,95916.91
2023-01-10T23:22:25.627Z,95911.41
2023-01-10T23:25:28.037Z,95907.81
2023-01-10T23:28:39.058Z,95905.09
2023-01-10T23:31:40.920Z,95892.72
2023-01-10T23:34:43.470Z,95903.69
2023-01-10T23:37:45.153Z,95902.13
2023-01-10T23:40:52.185Z,95893.66
2023-01-10T23:43:55.572Z,95888.66
2023-01-10T23:46:57.350Z,95887.69
2023-01-10T23:50:00.535Z,95880.38
2023-01-10T23:53:04.202Z,95884.41
2023-01-10T23:56:09.464Z,95888.22
2023-01-10T23:59:12.808Z,95878.75
